Time;durP1;ratioP1;P1;durP2;ratioP2;P2;SDS_P1;SDS_P2;PMS_P1;PMS_P2;Temp;Humidity;BMP_temperature;BMP_pressure;BME280_temperature;BME280_humidity;BME280_pressure;Samples;Min_cycle;Max_cycle;Signal;HPM_P1;HPM_P2
2022/09/27 00:00:20;;;;;;;12.82;6.75;;;;;;;17.49;62.80;97456.31;4487322;32;20111;-85
2022/09/27 00:02:46;;;;;;;13.55;6.60;;;;;;;17.44;62.78;97460.44;4487182;32;20373;-85
2022/09/27 00:05:11;;;;;;;14.70;6.50;;;;;;;17.45;62.61;97460.28;4487262;32;20144;-85
2022/09/27 00:07:37;;;;;;;13.95;7.03;;;;;;;17.45;62.56;97468.28;4487181;32;20144;-85
2022/09/27 00:10:03;;;;;;;12.13;6.72;;;;;;;17.42;62.54;97457.09;4486165;32;20356;-85
2022/09/27 00:12:28;;;;;;;13.62;6.90;;;;;;;17.40;62.58;97459.09;4487440;32;20148;-85
2022/09/27 00:14:54;;;;;;;13.62;7.22;;;;;;;17.37;62.67;97454.09;4487426;32;20127;-85
2022/09/27 00:17:19;;;;;;;14.40;7.47;;;;;;;17.27;62.92;97452.38;4487214;32;20110;-85
2022/09/27 00:19:45;;;;;;;13.88;7.80;;;;;;;17.32;62.88;97449.25;4487270;32;20084;-85
2022/09/27 00:22:10;;;;;;;14.90;7.55;;;;;;;17.27;62.96;97446.25;4487190;32;20458;-85
2022/09/27 00:24:35;;;;;;;13.82;7.55;;;;;;;17.32;62.88;97449.25;4487332;32;20096;-85
2022/09/27 00:27:01;;;;;;;18.20;7.95;;;;;;;17.32;62.82;97438.59;4487368;32;20418;-85
2022/09/27 00:29:26;;;;;;;14.52;8.02;;;;;;;17.24;63.00;97430.56;4487335;32;20111;-85
2022/09/27 00:31:52;;;;;;;14.10;7.90;;;;;;;17.16;63.08;97430.53;4487215;32;20348;-85
2022/09/27 00:34:22;;;;;;;15.20;8.15;;;;;;;17.04;63.37;97436.12;4487232;32;20387;-86
2022/09/27 00:36:48;;;;;;;15.18;7.32;;;;;;;17.21;62.90;97430.88;4486981;32;20087;-87
2022/09/27 00:39:14;;;;;;;15.15;8.10;;;;;;;17.28;62.65;97430.09;4487000;32;20140;-86
2022/09/27 00:41:41;;;;;;;12.73;6.93;;;;;;;17.23;62.90;97428.91;4487300;32;20131;-86
2022/09/27 00:44:25;;;;;;;13.90;6.97;;;;;;;17.29;62.90;97426.44;4472898;32;20169;-85
2022/09/27 00:47:00;;;;;;;14.98;7.07;;;;;;;17.35;62.85;97429.47;4486956;32;20503;-85
2022/09/27 00:49:25;;;;;;;15.15;7.47;;;;;;;17.34;62.91;97427.78;4486951;32;20386;-86
2022/09/27 00:52:04;;;;;;;13.20;7.37;;;;;;;17.34;62.97;97427.78;4486837;32;20111;-86
2022/09/27 00:54:31;;;;;;;14.90;7.87;;;;;;;17.25;63.09;97416.28;4486874;32;20084;-85
2022/09/27 00:56:57;;;;;;;12.63;6.95;;;;;;;17.30;63.08;97413.97;4486798;32;20126;-85
2022/09/27 00:59:29;;;;;;;15.75;7.55;;;;;;;17.33;63.03;97410.16;4486978;32;20147;-85
2022/09/27 01:01:55;;;;;;;15.77;7.57;;;;;;;17.35;63.16;97410.84;4472670;32;20084;-85
2022/09/27 01:04:22;;;;;;;14.15;7.53;;;;;;;17.33;63.12;97408.34;4486923;32;20114;-85
2022/09/27 01:06:48;;;;;;;13.35;7.37;;;;;;;17.35;63.09;97410.84;4472871;32;20160;-85
2022/09/27 01:09:13;;;;;;;12.75;6.97;;;;;;;17.32;63.11;97414.63;4472636;32;20112;-86
2022/09/27 01:12:07;;;;;;;13.15;6.62;;;;;;;17.40;62.87;97414.69;4472579;32;20091;-89
2022/09/27 01:14:35;;;;;;;13.88;6.72;;;;;;;17.40;62.94;97406.72;4486558;32;20096;-88
2022/09/27 01:17:28;;;;;;;14.02;7.20;;;;;;;17.39;63.02;97412.19;4486645;32;20120;-89
2022/09/27 01:20:31;;;;;;;15.70;7.90;;;;;;;17.28;63.22;97405.31;4486579;32;20123;-89
2022/09/27 01:23:18;;;;;;;15.45;7.75;;;;;;;17.28;63.15;97406.12;4477399;32;20125;-89
2022/09/27 01:26:04;;;;;;;16.35;8.15;;;;;;;17.27;62.98;97398.34;4491882;32;20088;-85
2022/09/27 01:28:42;;;;;;;13.68;7.82;;;;;;;17.20;62.89;97395.47;4477496;32;20142;-83
2022/09/27 01:31:33;;;;;;;14.67;7.57;;;;;;;17.14;62.88;97390.78;4477310;32;20083;-84
2022/09/27 01:34:05;;;;;;;14.20;7.57;;;;;;;17.13;62.83;97391.75;4491495;32;20218;-83
2022/09/27 01:36:42;;;;;;;14.90;8.40;;;;;;;17.05;62.90;97384.56;4477151;32;20104;-83
2022/09/27 01:39:50;;;;;;;15.98;8.23;;;;;;;17.03;62.97;97393.72;4477273;32;20097;-83
2022/09/27 01:42:26;;;;;;;15.80;7.72;;;;;;;17.01;63.02;97377.09;4411963;32;20124;-83
2022/09/27 01:45:06;;;;;;;15.45;7.93;;;;;;;17.02;63.05;97378.75;4399338;32;20104;-86
2022/09/27 01:47:41;;;;;;;15.00;7.32;;;;;;;17.03;63.16;97373.25;4399261;32;20181;-85
2022/09/27 01:50:13;;;;;;;14.40;7.30;;;;;;;17.04;63.28;97366.97;4411672;32;20587;-84
2022/09/27 01:52:43;;;;;;;18.80;7.68;;;;;;;17.01;63.49;97356.63;4398866;32;20188;-87
2022/09/27 01:55:10;;;;;;;14.60;7.82;;;;;;;16.97;63.59;97351.78;4386115;32;20130;-87
2022/09/27 01:57:38;;;;;;;13.60;6.97;;;;;;;17.02;63.48;97347.66;4386108;32;20124;-87
2022/09/27 02:00:07;;;;;;;15.00;7.93;;;;;;;17.04;63.47;97336.88;4398643;32;20453;-87
2022/09/27 02:02:37;;;;;;;14.20;7.10;;;;;;;17.04;63.48;97340.34;4398733;32;20086;-87
2022/09/27 02:05:05;;;;;;;15.70;8.30;;;;;;;17.04;63.32;97335.03;4398672;32;20417;-87
2022/09/27 02:07:37;;;;;;;14.77;8.18;;;;;;;16.97;63.22;97336.66;4411307;32;20117;-87
2022/09/27 02:10:07;;;;;;;14.63;8.18;;;;;;;16.82;63.29;97333.75;4398696;32;20098;-87
2022/09/27 02:12:40;;;;;;;14.20;7.45;;;;;;;16.82;63.20;97338.25;4398493;32;20165;-87
2022/09/27 02:15:10;;;;;;;15.50;8.48;;;;;;;16.77;63.08;97343.19;4398623;32;20238;-87
2022/09/27 02:17:44;;;;;;;16.58;9.38;;;;;;;16.66;63.14;97342.47;4398401;32;20174;-87
2022/09/27 02:20:27;;;;;;;15.63;9.00;;;;;;;16.52;63.45;97327.94;4476124;32;20191;-87
2022/09/27 02:23:24;;;;;;;17.00;9.20;;;;;;;16.54;63.30;97341.06;4476736;32;20139;-86
2022/09/27 02:26:00;;;;;;;15.55;8.93;;;;;;;16.53;63.30;97339.38;4490726;32;20103;-85
2022/09/27 02:29:07;;;;;;;18.27;8.38;;;;;;;16.49;63.37;97340.69;4476621;32;20104;-86
2022/09/27 02:31:32;;;;;;;17.55;9.05;;;;;;;16.47;63.38;97337.34;4411005;32;20469;-86
2022/09/27 02:34:13;;;;;;;16.37;9.70;;;;;;;16.36;63.51;97340.25;4395658;32;20140;-85
2022/09/27 02:36:39;;;;;;;16.92;9.98;;;;;;;16.26;63.85;97327.09;4408210;32;20394;-86
2022/09/27 02:39:05;;;;;;;17.27;9.57;;;;;;;16.04;64.64;97331.91;4395463;32;20098;-85
2022/09/27 02:41:30;;;;;;;16.30;8.98;;;;;;;16.15;64.26;97332.63;4408129;32;20132;-86
2022/09/27 02:44:02;;;;;;;16.60;9.50;;;;;;;16.15;64.21;97332.63;4408101;32;20106;-86
2022/09/27 02:46:30;;;;;;;17.15;9.50;;;;;;;16.18;64.14;97332.34;4408144;32;20094;-89
2022/09/27 02:48:56;;;;;;;16.85;9.30;;;;;;;16.17;64.13;97334.19;4408164;32;20144;-88
2022/09/27 02:51:54;;;;;;;16.67;9.27;;;;;;;16.16;64.10;97327.19;4407986;32;20551;-88
2022/09/27 02:54:50;;;;;;;17.33;10.15;;;;;;;16.12;64.13;97326.66;4363024;32;20107;-88
2022/09/27 02:57:44;;;;;;;16.60;10.05;;;;;;;16.07;64.44;97325.44;4362863;32;20683;-88
2022/09/27 03:00:18;;;;;;;17.83;9.93;;;;;;;15.94;64.77;97325.03;4350541;32;20270;-88
2022/09/27 03:02:56;;;;;;;17.45;10.02;;;;;;;15.89;64.88;97323.63;4362891;32;20181;-89
2022/09/27 03:05:27;;;;;;;17.42;9.90;;;;;;;15.95;64.70;97321.38;4405346;32;20149;-88
2022/09/27 03:07:52;;;;;;;19.58;10.13;;;;;;;15.94;64.70;97320.53;4441125;32;20134;-88
2022/09/27 03:10:20;;;;;;;17.08;10.13;;;;;;;15.94;64.64;97312.56;4440995;32;20109;-88
2022/09/27 03:12:46;;;;;;;16.33;9.55;;;;;;;15.95;64.58;97310.75;4441041;32;20097;-88
2022/09/27 03:15:12;;;;;;;18.83;10.35;;;;;;;15.93;64.57;97308.25;4441184;32;20538;-88
2022/09/27 03:17:38;;;;;;;18.45;10.57;;;;;;;15.87;64.72;97315.00;4453895;32;20109;-87
2022/09/27 03:20:04;;;;;;;17.60;9.57;;;;;;;15.87;64.72;97312.34;4453776;32;20136;-87
2022/09/27 03:22:29;;;;;;;19.20;10.88;;;;;;;15.85;64.81;97306.34;4454080;32;20119;-87
2022/09/27 03:24:55;;;;;;;18.62;10.27;;;;;;;15.80;64.87;97306.00;4453824;32;20116;-89
2022/09/27 03:27:20;;;;;;;16.77;10.35;;;;;;;15.81;64.89;97307.66;4441108;32;20093;-89
2022/09/27 03:29:46;;;;;;;17.00;9.95;;;;;;;15.71;65.38;97307.69;4468215;32;20453;-88
2022/09/27 03:32:11;;;;;;;18.17;9.85;;;;;;;15.70;65.45;97302.53;4487426;32;20144;-89
2022/09/27 03:34:37;;;;;;;17.87;10.57;;;;;;;15.76;65.23;97299.31;4487518;32;20144;-88
2022/09/27 03:37:02;;;;;;;20.05;10.40;;;;;;;15.80;65.13;97302.47;4487229;32;20076;-88
2022/09/27 03:39:28;;;;;;;16.20;9.20;;;;;;;15.81;65.05;97306.81;4487431;32;20134;-88
2022/09/27 03:41:53;;;;;;;19.52;11.43;;;;;;;15.78;65.04;97302.66;4487306;32;20076;-86
2022/09/27 03:44:18;;;;;;;18.62;10.80;;;;;;;15.70;65.21;97291.91;4486672;32;20137;-86
2022/09/27 03:46:44;;;;;;;20.27;11.20;;;;;;;15.76;65.07;97299.31;4486697;32;20099;-86
2022/09/27 03:49:09;;;;;;;20.35;11.40;;;;;;;15.77;65.03;97297.50;4487251;32;20111;-86
2022/09/27 03:51:35;;;;;;;21.33;11.23;;;;;;;15.70;65.21;97286.59;4472927;32;20093;-85
2022/09/27 03:54:00;;;;;;;20.90;12.00;;;;;;;15.66;65.23;97288.72;4487232;32;20465;-85
2022/09/27 03:56:26;;;;;;;20.60;11.95;;;;;;;15.53;65.88;97290.97;4487197;32;20077;-85
2022/09/27 03:58:51;;;;;;;22.55;13.00;;;;;;;15.60;65.61;97291.19;4487210;32;20100;-85
2022/09/27 04:01:17;;;;;;;22.52;13.20;;;;;;;15.56;65.80;97287.97;4472926;32;20092;-85
2022/09/27 04:03:42;;;;;;;23.85;13.27;;;;;;;15.64;65.56;97285.41;4487113;32;20118;-85
2022/09/27 04:06:08;;;;;;;24.70;14.10;;;;;;;15.68;65.40;97283.28;4472976;32;20076;-85
2022/09/27 04:08:33;;;;;;;25.90;14.93;;;;;;;15.70;65.30;97289.25;4487120;32;20153;-85
2022/09/27 04:10:58;;;;;;;22.65;13.25;;;;;;;15.70;65.11;97292.78;4487108;32;20435;-84
2022/09/27 04:13:24;;;;;;;24.33;14.52;;;;;;;15.77;64.89;97292.19;4472799;32;20337;-87
2022/09/27 04:15:49;;;;;;;23.58;13.25;;;;;;;15.78;64.79;97294.69;4487262;32;20466;-87
2022/09/27 04:18:15;;;;;;;24.60;12.85;;;;;;;15.80;64.68;97297.16;4487246;32;20424;-87
2022/09/27 04:20:41;;;;;;;26.45;13.48;;;;;;;15.82;64.67;97293.41;4487199;32;20131;-87
2022/09/27 04:23:06;;;;;;;28.12;13.57;;;;;;;15.85;64.74;97289.59;4487346;32;20094;-84
2022/09/27 04:25:32;;;;;;;26.35;13.32;;;;;;;15.88;64.70;97284.81;4487240;32;20114;-86
2022/09/27 04:28:00;;;;;;;20.37;12.27;;;;;;;15.86;64.83;97280.66;4487300;32;20119;-86
2022/09/27 04:30:28;;;;;;;;;;;;;;;15.89;64.83;97278.50;4487585;32;20515;-86
2022/09/27 04:32:53;;;;;;;23.83;11.68;;;;;;;16.02;64.68;97274.63;4487424;32;20045;-86
2022/09/27 04:38:03;;;;;;;22.95;11.88;;;;;;;16.01;64.43;97271.13;4486928;32;20581;-86
2022/09/27 04:40:29;;;;;;;26.35;11.73;;;;;;;16.03;64.34;97270.97;4472761;32;20097;-85
2022/09/27 04:42:55;;;;;;;24.52;11.73;;;;;;;15.97;64.40;97266.28;4486878;32;20083;-86
2022/09/27 04:45:21;;;;;;;44.67;12.52;;;;;;;16.00;64.38;97264.16;4486812;32;20092;-87
2022/09/27 04:47:48;;;;;;;19.40;10.73;;;;;;;16.02;64.50;97267.47;4486875;32;20089;-84
2022/09/27 04:50:16;;;;;;;22.00;11.70;;;;;;;16.04;64.56;97262.84;4486915;32;20775;-85
2022/09/27 04:52:41;;;;;;;21.23;10.63;;;;;;;16.04;64.68;97265.50;4472649;32;20104;-82
2022/09/27 04:55:08;;;;;;;22.05;11.55;;;;;;;16.06;64.58;97268.84;4486787;32;20088;-83
2022/09/27 04:57:34;;;;;;;20.65;10.93;;;;;;;16.14;64.31;97264.56;4486104;32;20100;-83
2022/09/27 04:59:59;;;;;;;19.58;11.02;;;;;;;16.09;64.06;97265.06;4486721;32;20107;-84
2022/09/27 05:02:26;;;;;;;22.42;10.60;;;;;;;16.12;63.91;97257.56;4472301;32;20084;-84
2022/09/27 05:04:52;;;;;;;17.90;10.15;;;;;;;16.18;63.72;97268.59;4486616;32;20085;-83
2022/09/27 05:07:18;;;;;;;19.20;10.55;;;;;;;16.25;63.58;97264.31;4486575;32;20184;-84
2022/09/27 05:09:44;;;;;;;36.20;12.27;;;;;;;16.30;63.56;97254.88;4472374;32;20130;-84
2022/09/27 05:12:10;;;;;;;29.45;11.55;;;;;;;16.34;63.39;97251.91;4472341;32;20088;-89
2022/09/27 05:14:36;;;;;;;17.90;9.82;;;;;;;16.40;63.47;97253.91;4486519;32;20092;-87
2022/09/27 05:17:01;;;;;;;22.13;11.88;;;;;;;16.48;63.58;97244.16;4472254;32;20100;-88
2022/09/27 05:19:27;;;;;;;30.00;13.48;;;;;;;16.56;63.60;97253.19;4459253;32;20100;-86
2022/09/27 05:21:52;;;;;;;31.45;16.00;;;;;;;16.56;63.86;97259.31;4469499;32;20093;-86
2022/09/27 05:24:18;;;;;;;35.13;16.65;;;;;;;16.67;64.01;97250.25;4470640;32;20154;-86
2022/09/27 05:26:45;;;;;;;38.15;16.90;;;;;;;16.77;64.13;97247.47;4469466;32;20136;-85
2022/09/27 05:29:11;;;;;;;115.25;18.98;;;;;;;16.81;64.25;97246.97;4470730;32;20135;-85
2022/09/27 05:31:36;;;;;;;143.02;20.55;;;;;;;16.92;64.23;97242.37;4470602;32;20472;-83
2022/09/27 05:34:01;;;;;;;95.20;18.42;;;;;;;16.99;64.26;97235.41;4470486;32;20503;-83
2022/09/27 05:36:27;;;;;;;163.90;22.92;;;;;;;17.01;64.42;97230.75;4456169;32;20109;-85
2022/09/27 05:38:53;;;;;;;112.28;18.70;;;;;;;16.97;64.61;97227.59;4466385;32;20144;-82
2022/09/27 05:41:18;;;;;;;187.18;22.48;;;;;;;16.95;64.76;97226.91;4469332;32;20096;-83
2022/09/27 05:43:45;;;;;;;181.68;22.62;;;;;;;16.87;64.83;97229.56;4469805;32;20396;-84
2022/09/27 05:46:10;;;;;;;120.90;21.33;;;;;;;16.86;64.82;97220.75;4472951;32;20172;-85
2022/09/27 05:48:37;;;;;;;184.98;24.52;;;;;;;16.89;65.05;97219.59;4471690;32;20128;-84
2022/09/27 05:51:03;;;;;;;59.05;21.50;;;;;;;16.92;65.22;97213.97;4469202;32;20116;-83
2022/09/27 05:53:28;;;;;;;144.60;22.00;;;;;;;16.93;65.45;97204.97;4452662;32;20085;-83
2022/09/27 05:55:54;;;;;;;37.85;17.83;;;;;;;16.92;65.76;97205.13;4463190;32;20152;-83
2022/09/27 05:58:19;;;;;;;66.28;18.83;;;;;;;17.02;65.61;97216.47;4478210;32;20092;-83
2022/09/27 06:00:45;;;;;;;77.95;18.95;;;;;;;17.10;65.53;97217.31;4474516;31;20112;-84
2022/09/27 06:03:11;;;;;;;42.25;17.65;;;;;;;17.19;65.22;97217.31;4479390;32;20358;-79
2022/09/27 06:05:38;;;;;;;57.13;19.15;;;;;;;17.18;65.19;97218.34;4470271;32;20088;-83
2022/09/27 06:08:07;;;;;;;42.97;19.65;;;;;;;17.27;64.96;97228.00;4467929;32;20413;-83
2022/09/27 06:10:33;;;;;;;35.90;19.05;;;;;;;17.30;65.00;97228.47;4448205;32;20098;-82
2022/09/27 06:13:04;;;;;;;45.15;19.10;;;;;;;17.36;64.82;97226.16;4473709;32;20088;-82
2022/09/27 06:15:31;;;;;;;48.80;18.42;;;;;;;17.39;64.86;97221.34;4468634;32;20456;-86
2022/09/27 06:17:57;;;;;;;34.10;18.65;;;;;;;17.46;64.68;97229.50;4474734;32;20104;-86
2022/09/27 06:20:22;;;;;;;54.30;19.15;;;;;;;17.51;64.39;97224.50;4471169;32;20144;-84
2022/09/27 06:22:47;;;;;;;40.55;18.17;;;;;;;17.59;64.23;97229.84;4477726;32;20088;-85
2022/09/27 06:25:13;;;;;;;63.47;19.45;;;;;;;17.61;64.08;97217.19;4486348;31;20116;-85
2022/09/27 06:27:38;;;;;;;181.52;24.17;;;;;;;17.64;63.96;97224.84;4487408;31;20118;-86
2022/09/27 06:30:05;;;;;;;57.35;20.58;;;;;;;17.67;63.69;97224.53;4485762;32;20105;-85
2022/09/27 06:32:31;;;;;;;154.40;21.90;;;;;;;17.67;63.49;97232.53;4485764;32;20106;-86
2022/09/27 06:34:57;;;;;;;36.95;18.70;;;;;;;17.67;63.51;97227.19;4472280;32;20124;-86
2022/09/27 06:37:26;;;;;;;107.68;21.12;;;;;;;17.47;64.11;97229.34;4485307;32;20127;-86
2022/09/27 06:39:52;;;;;;;43.17;19.30;;;;;;;17.66;63.76;97232.69;4487916;31;20105;-85
2022/09/27 06:42:18;;;;;;;59.97;20.98;;;;;;;17.73;63.69;97216.84;4486838;32;20092;-85
2022/09/27 06:44:48;;;;;;;61.25;20.62;;;;;;;17.74;63.76;97210.53;4486824;32;20122;-86
2022/09/27 06:47:15;;;;;;;37.83;19.23;;;;;;;17.79;63.36;97213.50;4488082;31;20118;-86
2022/09/27 06:49:40;;;;;;;56.03;22.58;;;;;;;17.77;63.32;97212.84;4488021;31;20107;-83
2022/09/27 06:52:06;;;;;;;39.58;20.02;;;;;;;17.83;63.21;97206.88;4486729;32;20332;-83
2022/09/27 06:54:31;;;;;;;49.08;22.05;;;;;;;17.86;63.17;97206.56;4487923;31;20537;-83
2022/09/27 06:56:57;;;;;;;44.03;20.33;;;;;;;17.91;62.92;97201.56;4487762;31;20446;-83
2022/09/27 07:02:09;;;;;;;39.17;21.25;;;;;;;18.01;63.07;97209.38;4485931;32;20490;-82
2022/09/27 07:04:35;;;;;;;40.20;23.10;;;;;;;18.13;62.60;97216.00;4470842;32;20128;-82
2022/09/27 07:07:00;;;;;;;41.30;23.33;;;;;;;18.15;62.55;97223.81;4487242;32;20439;-83
2022/09/27 07:09:26;;;;;;;39.22;21.45;;;;;;;18.19;62.50;97231.31;4482371;31;20898;-83
2022/09/27 07:11:54;;;;;;;39.90;21.83;;;;;;;18.26;62.35;97228.81;4473867;32;20127;-84
2022/09/27 07:14:20;;;;;;;40.63;23.30;;;;;;;18.31;62.20;97237.13;4470573;32;20165;-83
2022/09/27 07:16:46;;;;;;;41.10;23.85;;;;;;;18.48;61.54;97227.22;4471759;32;20100;-83
2022/09/27 07:19:13;;;;;;;38.08;21.87;;;;;;;18.54;61.93;97231.88;4470274;32;20149;-84
2022/09/27 07:21:38;;;;;;;42.95;22.30;;;;;;;18.64;61.36;97224.50;4471790;32;20101;-83
2022/09/27 07:24:04;;;;;;;42.62;23.77;;;;;;;18.80;61.12;97226.31;4471765;32;20120;-84
2022/09/27 07:26:29;;;;;;;38.25;22.42;;;;;;;18.93;60.48;97214.22;4470452;32;20134;-83
2022/09/27 07:28:55;;;;;;;47.10;24.60;;;;;;;18.99;59.94;97219.72;4475575;32;20377;-81
2022/09/27 07:31:21;;;;;;;45.63;24.42;;;;;;;18.98;60.07;97219.87;4473639;32;20418;-81
2022/09/27 07:33:47;;;;;;;42.47;23.75;;;;;;;19.11;59.58;97225.47;4478108;32;20116;-81
2022/09/27 07:36:13;;;;;;;46.33;25.73;;;;;;;19.11;59.39;97225.47;4482108;32;20232;-82
2022/09/27 07:38:38;;;;;;;42.92;23.10;;;;;;;19.19;59.55;97235.28;4478495;32;20179;-82
2022/09/27 07:41:06;;;;;;;38.92;22.25;;;;;;;19.35;59.30;97220.97;4485750;31;20458;-82
2022/09/27 07:43:32;;;;;;;36.08;20.25;;;;;;;19.47;59.06;97214.22;4487299;32;20096;-82
2022/09/27 07:45:57;;;;;;;35.15;20.15;;;;;;;19.50;57.99;97223.72;4481175;32;20105;-82
2022/09/27 07:48:23;;;;;;;35.00;20.45;;;;;;;19.51;57.57;97220.03;4485251;32;20092;-82
2022/09/27 07:50:48;;;;;;;36.55;20.62;;;;;;;19.50;57.75;97215.69;4480343;32;20112;-82
2022/09/27 07:53:15;;;;;;;35.65;21.33;;;;;;;19.40;57.90;97210.59;4481077;32;20096;-83
2022/09/27 07:55:41;;;;;;;38.05;20.75;;;;;;;19.58;57.45;97210.28;4474368;32;20492;-82
2022/09/27 07:58:10;;;;;;;35.65;19.95;;;;;;;19.82;57.14;97204.78;4487321;31;20088;-82
2022/09/27 08:00:37;;;;;;;27.90;17.10;;;;;;;19.96;56.56;97208.47;4474383;32;20153;-81
2022/09/27 08:03:07;;;;;;;31.47;18.43;;;;;;;20.01;55.39;97221.28;4470622;32;20136;-83
2022/09/27 08:05:35;;;;;;;29.27;17.27;;;;;;;20.04;55.31;97218.25;4471911;32;20176;-82
2022/09/27 08:08:01;;;;;;;29.73;17.60;;;;;;;20.10;55.61;97206.84;4473488;32;20379;-81
2022/09/27 08:10:30;;;;;;;29.05;17.50;;;;;;;20.23;55.29;97196.34;4471624;32;20110;-81
2022/09/27 08:12:56;;;;;;;27.15;16.17;;;;;;;20.22;55.05;97197.38;4472727;32;20108;-82
2022/09/27 08:15:22;;;;;;;27.95;16.65;;;;;;;20.21;54.85;97200.22;4472986;32;20499;-82
2022/09/27 08:17:47;;;;;;;26.17;16.50;;;;;;;20.25;54.24;97201.50;4484668;32;20282;-82
2022/09/27 08:20:13;;;;;;;26.95;16.37;;;;;;;20.34;54.31;97210.25;4486875;32;20080;-82
2022/09/27 08:22:41;;;;;;;28.30;16.42;;;;;;;20.37;53.89;97210.72;4487099;32;20112;-81
2022/09/27 08:25:06;;;;;;;28.48;16.98;;;;;;;20.23;54.10;97217.72;4472861;32;20191;-82
2022/09/27 08:27:32;;;;;;;27.33;15.85;;;;;;;20.17;54.14;97206.94;4486917;32;20964;-82
2022/09/27 08:29:58;;;;;;;29.45;16.80;;;;;;;20.03;54.54;97216.63;4486689;32;20381;-82
2022/09/27 08:32:23;;;;;;;28.30;17.15;;;;;;;19.83;54.99;97222.44;4471929;32;20162;-83
2022/09/27 08:34:49;;;;;;;27.67;17.70;;;;;;;19.74;55.42;97226.22;4476386;32;20123;-83
2022/09/27 08:37:14;;;;;;;28.23;17.70;;;;;;;19.64;55.94;97221.09;4471015;32;20096;-82
2022/09/27 08:39:40;;;;;;;29.73;17.52;;;;;;;19.52;56.60;97219.03;4485047;32;20336;-81
2022/09/27 08:42:12;;;;;;;27.10;15.98;;;;;;;19.40;57.05;97211.44;4486907;32;20081;-81
2022/09/27 08:44:43;;;;;;;27.73;16.08;;;;;;;19.53;56.85;97201.97;4472912;32;20726;-82
2022/09/27 08:47:15;;;;;;;25.98;15.43;;;;;;;19.55;56.76;97203.47;4476729;32;20114;-82
2022/09/27 08:49:46;;;;;;;25.83;15.80;;;;;;;19.51;56.92;97199.50;4457138;32;20080;-84
2022/09/27 08:52:17;;;;;;;25.92;15.27;;;;;;;19.61;56.68;97194.75;4456985;32;20131;-85
2022/09/27 08:54:44;;;;;;;24.40;16.02;;;;;;;19.59;57.11;97204.78;4457002;32;20109;-82
2022/09/27 08:57:14;;;;;;;24.70;15.63;;;;;;;19.73;56.79;97199.69;4455957;32;20114;-82
2022/09/27 08:59:48;;;;;;;28.17;15.60;;;;;;;19.67;56.59;97203.87;4473176;32;20088;-82
2022/09/27 09:02:18;;;;;;;24.73;14.90;;;;;;;19.54;57.04;97209.00;4459983;32;20101;-82
2022/09/27 09:04:45;;;;;;;23.58;15.18;;;;;;;19.46;57.11;97209.88;4472657;32;20448;-83
2022/09/27 09:07:37;;;;;;;21.92;14.68;;;;;;;19.44;57.27;97209.22;4469962;32;20106;-83
2022/09/27 09:13:19;;;;;;;;;;;;;;;19.40;57.88;97198.06;4470287;32;20168;-82
2022/09/27 09:16:16;;;;;;;24.17;13.77;;;;;;;19.47;57.53;97189.34;4470505;32;20006;-82
2022/09/27 09:18:56;;;;;;;23.45;14.87;;;;;;;19.33;57.78;97185.62;4459662;32;20088;-82
2022/09/27 09:21:24;;;;;;;23.55;14.02;;;;;;;19.23;58.08;97191.19;4469550;32;20116;-82
2022/09/27 09:24:34;;;;;;;26.85;13.95;;;;;;;19.18;58.25;97182.88;4470889;32;20126;-82
2022/09/27 09:27:18;;;;;;;;;;;;;;;19.04;58.96;97182.66;4422376;32;20527;-82
2022/09/27 09:30:18;;;;;;;25.12;14.35;;;;;;;18.96;59.28;97166.66;4409248;32;19981;-82
2022/09/27 09:33:15;;;;;;;26.30;14.60;;;;;;;18.97;59.89;97154.19;4409346;32;20119;-82
2022/09/27 09:35:49;;;;;;;23.85;15.65;;;;;;;19.09;60.15;97154.59;4422139;32;20433;-83
2022/09/27 09:38:22;;;;;;;25.00;15.07;;;;;;;19.18;60.47;97156.19;4421911;32;20124;-82
2022/09/27 09:40:54;;;;;;;25.15;14.77;;;;;;;19.23;60.24;97154.62;4409115;32;20119;-82
2022/09/27 09:43:24;;;;;;;25.98;15.98;;;;;;;19.30;59.99;97160.09;4410482;32;20112;-82
2022/09/27 09:46:11;;;;;;;25.58;15.02;;;;;;;19.34;59.87;97160.59;4423810;32;20163;-82
2022/09/27 09:48:48;;;;;;;26.33;15.60;;;;;;;19.35;60.02;97157.72;4424061;32;20109;-83
2022/09/27 09:51:21;;;;;;;24.40;15.18;;;;;;;19.30;59.91;97154.78;4411356;32;20254;-82
2022/09/27 09:53:57;;;;;;;25.08;14.93;;;;;;;19.34;60.02;97153.41;4423907;32;20124;-82
2022/09/27 09:56:26;;;;;;;25.12;15.70;;;;;;;19.34;60.08;97145.38;4410974;32;20453;-82
2022/09/27 09:59:01;;;;;;;23.70;15.18;;;;;;;19.27;60.46;97152.44;4423978;32;20264;-82
2022/09/27 10:01:32;;;;;;;29.10;15.57;;;;;;;19.28;60.25;97147.94;4423966;32;20441;-83
2022/09/27 10:03:57;;;;;;;24.83;16.23;;;;;;;19.28;60.42;97148.78;4457189;32;20092;-83
2022/09/27 10:06:25;;;;;;;25.95;16.35;;;;;;;19.25;60.44;97146.47;4471354;32;20150;-82
2022/09/27 10:08:53;;;;;;;25.23;15.65;;;;;;;18.98;61.13;97147.81;4472639;32;20115;-83
2022/09/27 10:11:30;;;;;;;25.88;15.88;;;;;;;19.09;60.84;97144.75;4471481;32;20085;-82
2022/09/27 10:13:55;;;;;;;26.55;17.05;;;;;;;19.12;60.93;97143.56;4472536;32;20103;-82
2022/09/27 10:16:21;;;;;;;25.58;16.37;;;;;;;19.17;61.00;97138.53;4471306;32;20104;-82
2022/09/27 10:18:50;;;;;;;26.37;17.15;;;;;;;19.22;61.12;97133.47;4471042;32;20093;-82
2022/09/27 10:21:24;;;;;;;24.52;15.93;;;;;;;19.26;61.08;97137.44;4470945;32;20088;-82
2022/09/27 10:24:11;;;;;;;27.25;16.08;;;;;;;19.21;61.17;97137.97;4471202;32;20157;-83
2022/09/27 10:26:38;;;;;;;28.27;16.80;;;;;;;19.21;61.37;97129.97;4472372;32;20093;-82
2022/09/27 10:29:15;;;;;;;27.58;15.55;;;;;;;19.16;61.46;97127.03;4471063;32;20165;-82
2022/09/27 10:31:46;;;;;;;27.00;16.48;;;;;;;19.24;61.36;97124.28;4470961;32;20103;-82
2022/09/27 10:34:39;;;;;;;25.88;15.80;;;;;;;19.17;61.77;97117.16;4472340;32;20455;-82
2022/09/27 10:37:16;;;;;;;26.20;16.50;;;;;;;19.28;61.62;97122.09;4468861;32;20116;-82
2022/09/27 10:39:44;;;;;;;24.77;15.27;;;;;;;19.12;61.84;97122.19;4458381;32;20823;-82
2022/09/27 10:42:33;;;;;;;;;;;;;;;19.24;61.72;97115.44;4471514;32;20093;-83
2022/09/27 10:45:23;;;;;;;25.25;15.93;;;;;;;19.24;61.70;97113.59;4465761;32;19991;-83
2022/09/27 10:47:48;;;;;;;25.67;16.08;;;;;;;19.20;61.93;97116.78;4470952;32;20529;-83
2022/09/27 10:50:40;;;;;;;25.12;16.25;;;;;;;19.16;62.07;97112.81;4471257;32;20108;-82
2022/09/27 10:53:15;;;;;;;25.42;16.33;;;;;;;19.18;62.06;97106.31;4472386;32;20100;-82
2022/09/27 10:55:41;;;;;;;26.40;16.48;;;;;;;19.14;62.27;97107.69;4470565;32;20084;-82
2022/09/27 10:58:20;;;;;;;26.77;17.05;;;;;;;19.17;62.30;97109.97;4470809;32;20248;-82
2022/09/27 11:00:56;;;;;;;26.65;15.70;;;;;;;19.22;62.33;97112.13;4471173;32;20100;-82
2022/09/27 11:03:24;;;;;;;24.90;15.55;;;;;;;19.29;62.22;97106.88;4472012;32;20466;-83
2022/09/27 11:05:53;;;;;;;24.58;15.50;;;;;;;19.27;62.32;97100.91;4470760;32;20168;-83
2022/09/27 11:08:18;;;;;;;26.33;15.50;;;;;;;19.34;62.21;97099.19;4472037;32;20473;-82
2022/09/27 11:11:05;;;;;;;29.77;16.25;;;;;;;19.33;62.14;97100.16;4471926;32;20115;-82
2022/09/27 11:13:33;;;;;;;26.40;15.32;;;;;;;19.36;62.26;97097.16;4471951;32;20388;-82
2022/09/27 11:16:20;;;;;;;;;;;;;;;19.31;62.45;97091.50;4471393;32;20106;-82
2022/09/27 11:19:10;;;;;;;26.52;15.52;;;;;;;19.36;62.50;97089.97;4471008;32;19984;-83
2022/09/27 11:21:38;;;;;;;26.00;16.23;;;;;;;19.42;62.55;97091.91;4471682;32;20127;-82
2022/09/27 11:24:29;;;;;;;25.37;15.50;;;;;;;19.58;62.59;97074.06;4471828;32;20089;-82
2022/09/27 11:26:57;;;;;;;25.90;15.82;;;;;;;19.76;61.92;97079.06;4471785;32;20127;-83
2022/09/27 11:29:58;;;;;;;24.90;16.12;;;;;;;19.74;61.57;97076.59;4471787;32;20152;-82
2022/09/27 11:32:29;;;;;;;24.95;15.65;;;;;;;19.84;61.35;97074.47;4471879;32;20097;-83
2022/09/27 11:35:05;;;;;;;23.60;15.60;;;;;;;19.89;61.10;97067.75;4471801;32;20085;-82
2022/09/27 11:37:46;;;;;;;24.60;15.13;;;;;;;20.03;60.69;97070.41;4470712;32;20080;-82
2022/09/27 11:40:20;;;;;;;24.42;14.98;;;;;;;19.98;61.01;97061.31;4471682;32;20093;-82
2022/09/27 11:42:59;;;;;;;22.70;13.65;;;;;;;20.08;60.73;97061.00;4471802;32;20096;-82